Terminal Aerodrome Forecast
Issued by NWS

Home | Current Version | Previous Version | Text Only | Print | Product List | Glossary On
Versions: 1 2 3 4 5 6 7 8 9 10 11 12 13 14 15 16 17 18 19 20 21 22 23 24
000
FTUS46 KSEW 250500
TAFSEA
TAF
KSEA 250520Z 2506/2612 20007KT P6SM SCT050 BKN200
      TEMPO 2507/2511 BKN050 BKN200
     FM251100 19006KT P6SM BKN050 BKN200
     FM252100 25007KT P6SM VCSH BKN045
     FM260900 19006KT P6SM SCT060 BKN200=

USA.gov is the U.S. government's official web portal to all federal, state and local government web resources and services.